createdAt,value
2022-10-30T00:00:26.808Z,14.55
2022-10-30T00:05:28.017Z,14.47
2022-10-30T00:10:29.264Z,14.39
2022-10-30T00:15:30.681Z,14.42
2022-10-30T00:20:32.025Z,14.37
2022-10-30T00:25:33.215Z,14.45
2022-10-30T00:30:34.407Z,14.23
2022-10-30T00:35:35.625Z,14.31
2022-10-30T00:40:36.872Z,14.43
2022-10-30T00:45:38.082Z,14.01
2022-10-30T00:50:39.311Z,13.97
2022-10-30T00:55:40.520Z,14.14
2022-10-30T01:00:41.791Z,14.16
2022-10-30T01:05:43.038Z,14.23
2022-10-30T01:10:44.317Z,14.29
2022-10-30T01:15:45.520Z,14.20
2022-10-30T01:20:46.876Z,14.12
2022-10-30T01:25:48.164Z,14.18
2022-10-30T01:30:49.449Z,14.15
2022-10-30T01:35:50.647Z,14.12
2022-10-30T01:40:51.906Z,14.06
2022-10-30T01:45:53.131Z,13.86
2022-10-30T01:50:54.423Z,13.97
2022-10-30T01:55:55.723Z,13.79
2022-10-30T02:00:57.042Z,14.02
2022-10-30T02:05:58.401Z,14.01
2022-10-30T02:10:59.672Z,13.76
2022-10-30T02:16:00.931Z,13.78
2022-10-30T02:21:02.164Z,13.71
2022-10-30T02:26:03.640Z,13.57
2022-10-30T02:31:05.577Z,13.61
2022-10-30T02:36:06.815Z,13.86
2022-10-30T02:41:08.029Z,14.02
2022-10-30T02:46:09.268Z,13.98
2022-10-30T02:51:10.607Z,14.04
2022-10-30T02:56:11.937Z,14.01
2022-10-30T03:01:13.360Z,14.03
2022-10-30T03:06:15.628Z,13.89
2022-10-30T03:11:16.910Z,13.94
2022-10-30T03:16:18.114Z,13.89
2022-10-30T03:21:19.405Z,13.96
2022-10-30T03:26:20.608Z,13.89
2022-10-30T03:31:21.825Z,14.00
2022-10-30T03:36:23.054Z,13.91
2022-10-30T03:41:24.315Z,13.58
2022-10-30T03:46:26.802Z,13.64
2022-10-30T03:51:28.020Z,13.43
2022-10-30T03:56:29.248Z,13.30
2022-10-30T04:01:30.762Z,13.00
2022-10-30T04:06:32.114Z,12.96
2022-10-30T04:11:33.315Z,13.20
2022-10-30T04:16:34.516Z,13.11
2022-10-30T04:21:35.774Z,13.16
2022-10-30T04:26:37.027Z,13.12
2022-10-30T04:31:38.241Z,13.24
2022-10-30T04:36:39.445Z,13.03
2022-10-30T04:41:40.660Z,13.02
2022-10-30T04:46:41.868Z,12.99
2022-10-30T04:51:43.321Z,12.90
2022-10-30T04:56:44.529Z,12.93
2022-10-30T05:01:45.857Z,12.78
2022-10-30T05:06:47.163Z,12.60
2022-10-30T05:11:48.406Z,12.39
2022-10-30T05:16:49.667Z,12.37
2022-10-30T05:21:50.880Z,12.28
2022-10-30T05:26:52.098Z,12.47
2022-10-30T05:31:53.328Z,12.39
2022-10-30T05:36:54.561Z,12.27
2022-10-30T05:41:55.850Z,12.54
2022-10-30T05:46:57.203Z,12.54
2022-10-30T05:51:58.498Z,12.49
2022-10-30T05:56:59.707Z,12.32
2022-10-30T06:02:01.010Z,12.18
2022-10-30T06:07:02.282Z,11.98
2022-10-30T06:12:03.485Z,12.08
2022-10-30T06:17:04.731Z,12.28
2022-10-30T06:22:05.960Z,12.24
2022-10-30T06:27:07.204Z,12.16
2022-10-30T06:32:08.463Z,12.03
2022-10-30T06:37:09.787Z,11.95
2022-10-30T06:42:11.075Z,12.13
2022-10-30T06:47:12.348Z,12.40
2022-10-30T06:52:13.659Z,12.59
2022-10-30T06:57:14.949Z,12.69
2022-10-30T07:02:16.240Z,12.57
2022-10-30T07:07:17.513Z,12.25
2022-10-30T07:12:18.839Z,12.30
2022-10-30T07:17:20.077Z,12.33
2022-10-30T07:22:22.267Z,12.45
2022-10-30T07:27:23.549Z,12.38
2022-10-30T07:32:24.898Z,12.75
2022-10-30T07:37:26.137Z,12.96
2022-10-30T07:42:27.415Z,13.14
2022-10-30T07:52:54.217Z,13.41
2022-10-30T07:57:55.630Z,13.78
2022-10-30T08:02:57.574Z,14.12
2022-10-30T08:07:59.784Z,13.69
2022-10-30T08:13:01.315Z,13.99
2022-10-30T08:18:02.669Z,14.34
2022-10-30T08:23:03.903Z,14.13
2022-10-30T08:28:05.349Z,14.35
2022-10-30T08:33:06.638Z,14.57
2022-10-30T08:38:08.074Z,15.08
2022-10-30T08:43:09.320Z,15.15
2022-10-30T08:48:10.528Z,15.62
2022-10-30T08:53:11.726Z,15.46
2022-10-30T08:58:12.983Z,15.64
2022-10-30T09:03:14.213Z,15.64
2022-10-30T09:08:15.401Z,15.28
2022-10-30T09:13:16.625Z,15.27
2022-10-30T09:18:17.830Z,15.45
2022-10-30T09:23:19.026Z,15.75
2022-10-30T09:28:20.237Z,15.72
2022-10-30T09:33:21.486Z,15.91
2022-10-30T09:38:22.690Z,15.92
2022-10-30T09:43:24.725Z,16.05
2022-10-30T09:48:25.970Z,16.40
2022-10-30T09:53:27.160Z,16.71
2022-10-30T09:58:28.385Z,16.85
2022-10-30T10:03:29.602Z,17.15
2022-10-30T10:08:30.856Z,17.74
2022-10-30T10:13:32.124Z,18.94
2022-10-30T10:23:39.523Z,20.09
2022-10-30T10:28:40.728Z,20.38
2022-10-30T10:33:41.933Z,20.68
2022-10-30T10:38:43.132Z,20.20
2022-10-30T10:43:44.341Z,19.83
2022-10-30T10:48:45.582Z,19.93
2022-10-30T10:53:46.817Z,20.15
2022-10-30T10:58:48.029Z,20.33
2022-10-30T11:03:49.238Z,20.18
2022-10-30T11:08:50.483Z,20.49
2022-10-30T11:13:51.693Z,20.51
2022-10-30T11:18:52.905Z,20.70
2022-10-30T11:23:54.269Z,20.60
2022-10-30T11:28:55.552Z,21.07
2022-10-30T11:33:57.208Z,21.09
2022-10-30T11:38:58.424Z,21.29
2022-10-30T11:43:59.619Z,21.36
2022-10-30T11:49:00.882Z,21.59
2022-10-30T11:54:02.452Z,21.84
2022-10-30T11:59:03.692Z,21.99
2022-10-30T12:04:04.893Z,21.94
2022-10-30T12:09:06.108Z,22.13
2022-10-30T12:14:07.328Z,22.24
2022-10-30T12:19:15.360Z,22.37
2022-10-30T12:24:16.635Z,22.50
2022-10-30T12:29:17.969Z,22.62
2022-10-30T12:34:19.329Z,22.94
2022-10-30T12:39:20.530Z,23.22
2022-10-30T12:44:21.749Z,23.44
2022-10-30T12:49:23.002Z,23.47
2022-10-30T12:54:24.214Z,23.53
2022-10-30T12:59:25.421Z,23.68
2022-10-30T13:04:26.680Z,23.81
2022-10-30T13:09:27.942Z,23.95
2022-10-30T13:14:29.150Z,24.33
2022-10-30T13:19:30.354Z,24.71
2022-10-30T13:24:31.568Z,25.09
2022-10-30T13:29:32.877Z,25.46
2022-10-30T13:34:34.106Z,25.30
2022-10-30T13:39:35.329Z,25.42
2022-10-30T13:44:36.587Z,25.57
2022-10-30T13:49:37.790Z,24.93
2022-10-30T13:54:38.988Z,24.91
2022-10-30T13:59:40.197Z,24.95
2022-10-30T14:04:41.389Z,24.71
2022-10-30T14:09:43.399Z,24.49
2022-10-30T14:14:44.716Z,24.05
2022-10-30T14:19:47.900Z,23.91
2022-10-30T14:24:49.157Z,23.82
2022-10-30T14:29:50.432Z,23.60
2022-10-30T14:34:51.684Z,23.74
2022-10-30T14:39:52.896Z,23.75
2022-10-30T14:44:54.099Z,23.62
2022-10-30T14:49:55.332Z,22.85
2022-10-30T14:54:56.579Z,22.52
2022-10-30T14:59:57.842Z,22.14
2022-10-30T15:04:59.164Z,21.88
2022-10-30T15:10:00.448Z,21.85
2022-10-30T15:15:07.577Z,22.04
2022-10-30T15:20:09.001Z,21.23
2022-10-30T15:25:10.334Z,20.88
2022-10-30T15:30:11.540Z,20.66
2022-10-30T15:35:12.746Z,20.33
2022-10-30T15:40:14.042Z,20.30
2022-10-30T15:45:15.265Z,20.02
2022-10-30T15:50:16.493Z,19.92
2022-10-30T15:55:17.955Z,19.49
2022-10-30T16:00:19.215Z,19.41
2022-10-30T16:05:20.452Z,19.18
2022-10-30T16:10:21.689Z,18.50
2022-10-30T16:15:22.940Z,19.22
2022-10-30T16:20:24.185Z,19.26
2022-10-30T16:25:25.654Z,18.25
2022-10-30T16:30:31.949Z,18.39
2022-10-30T16:35:33.240Z,18.16
2022-10-30T16:40:34.481Z,17.61
2022-10-30T16:45:35.737Z,17.62
2022-10-30T16:50:38.848Z,17.70
2022-10-30T16:55:40.174Z,17.74
2022-10-30T17:00:41.513Z,17.13
2022-10-30T17:05:50.563Z,17.13
2022-10-30T17:10:51.873Z,16.93
2022-10-30T17:15:55.341Z,16.46
2022-10-30T17:20:56.567Z,16.51
2022-10-30T17:25:57.883Z,16.86
2022-10-30T17:31:00.643Z,16.71
2022-10-30T17:36:01.925Z,16.65
2022-10-30T17:41:03.256Z,16.21
2022-10-30T17:46:04.539Z,15.92
2022-10-30T17:51:05.788Z,16.01
2022-10-30T17:56:07.026Z,15.87
2022-10-30T18:06:42.387Z,15.80
2022-10-30T18:11:48.637Z,15.48
2022-10-30T18:16:54.527Z,15.51
2022-10-30T18:21:56.730Z,15.91
2022-10-30T18:26:58.574Z,15.69
2022-10-30T18:31:59.903Z,15.57
2022-10-30T18:37:01.113Z,15.98
2022-10-30T18:42:02.418Z,16.09
2022-10-30T18:47:05.108Z,15.96
2022-10-30T18:52:06.344Z,15.70
2022-10-30T18:57:07.607Z,15.82
2022-10-30T19:02:08.966Z,15.68
2022-10-30T19:07:10.358Z,15.52
2022-10-30T19:12:11.632Z,15.51
2022-10-30T19:17:12.920Z,15.06
2022-10-30T19:22:15.269Z,14.81
2022-10-30T19:27:16.525Z,14.74
2022-10-30T19:32:17.725Z,15.08
2022-10-30T19:37:18.984Z,15.25
2022-10-30T19:42:20.224Z,14.93
2022-10-30T19:47:21.459Z,14.81
2022-10-30T19:52:28.158Z,14.96
2022-10-30T19:57:30.426Z,14.89
2022-10-30T20:02:31.680Z,14.66
2022-10-30T20:07:32.901Z,14.60
2022-10-30T20:12:34.156Z,14.62
2022-10-30T20:17:35.394Z,14.52
2022-10-30T20:22:36.596Z,14.33
2022-10-30T20:27:37.859Z,14.26
2022-10-30T20:32:39.084Z,13.88
2022-10-30T20:37:40.566Z,14.08
2022-10-30T20:42:41.857Z,13.85
2022-10-30T20:47:43.226Z,13.91
2022-10-30T20:52:44.499Z,14.08
2022-10-30T20:57:45.796Z,14.01
2022-10-30T21:02:47.101Z,13.94
2022-10-30T21:07:48.356Z,13.65
2022-10-30T21:12:49.617Z,13.77
2022-10-30T21:17:50.902Z,13.66
2022-10-30T21:22:52.129Z,13.38
2022-10-30T21:27:53.382Z,13.22
2022-10-30T21:32:54.634Z,13.67
2022-10-30T21:37:55.913Z,13.70
2022-10-30T21:42:59.829Z,13.56
2022-10-30T21:48:04.431Z,13.69
2022-10-30T21:53:06.958Z,13.59
2022-10-30T21:58:08.208Z,13.14
2022-10-30T22:03:09.476Z,12.82
2022-10-30T22:08:10.698Z,13.07
2022-10-30T22:18:13.116Z,13.23
2022-10-30T22:23:14.325Z,13.20
2022-10-30T22:28:15.576Z,13.14
2022-10-30T22:33:16.913Z,13.00
2022-10-30T22:38:18.294Z,12.88
2022-10-30T22:43:19.503Z,12.82
2022-10-30T22:48:20.717Z,12.85
2022-10-30T22:53:21.978Z,12.77
2022-10-30T22:58:23.194Z,13.00
2022-10-30T23:03:24.454Z,13.02
2022-10-30T23:08:26.069Z,12.90
2022-10-30T23:13:27.318Z,12.99
2022-10-30T23:18:28.593Z,12.31
2022-10-30T23:23:29.918Z,12.68
2022-10-30T23:28:31.182Z,12.58
2022-10-30T23:33:32.401Z,12.31
2022-10-30T23:38:33.612Z,12.46
2022-10-30T23:43:34.820Z,12.26
2022-10-30T23:48:36.016Z,12.46
2022-10-30T23:53:37.301Z,12.21
2022-10-30T23:58:38.537Z,12.17
